sensor_id;sensor_type;location;lat;lon;timestamp;P1;durP1;ratioP1;P2;durP2;ratioP2
4210;SDS011;2119;48.828;12.396;2023-09-19T00:03:20;4.27;;;2.43;;
4210;SDS011;2119;48.828;12.396;2023-09-19T00:08:20;2.43;;;2.23;;
4210;SDS011;2119;48.828;12.396;2023-09-19T00:13:24;2.60;;;2.30;;
4210;SDS011;2119;48.828;12.396;2023-09-19T00:18:25;6.10;;;2.47;;
4210;SDS011;2119;48.828;12.396;2023-09-19T00:23:29;3.43;;;2.00;;
4210;SDS011;2119;48.828;12.396;2023-09-19T00:28:29;5.47;;;2.10;;
4210;SDS011;2119;48.828;12.396;2023-09-19T00:33:30;3.57;;;1.70;;
4210;SDS011;2119;48.828;12.396;2023-09-19T00:38:30;3.60;;;2.20;;
4210;SDS011;2119;48.828;12.396;2023-09-19T00:43:31;2.43;;;2.20;;
4210;SDS011;2119;48.828;12.396;2023-09-19T00:48:38;3.50;;;2.60;;
4210;SDS011;2119;48.828;12.396;2023-09-19T00:53:40;2.77;;;2.57;;
4210;SDS011;2119;48.828;12.396;2023-09-19T00:58:46;4.30;;;2.80;;
4210;SDS011;2119;48.828;12.396;2023-09-19T01:03:46;4.30;;;2.88;;
4210;SDS011;2119;48.828;12.396;2023-09-19T01:08:46;2.57;;;2.10;;
4210;SDS011;2119;48.828;12.396;2023-09-19T01:13:48;2.92;;;2.72;;
4210;SDS011;2119;48.828;12.396;2023-09-19T01:34:46;2.40;;;2.20;;
4210;SDS011;2119;48.828;12.396;2023-09-19T01:39:47;2.30;;;2.03;;
4210;SDS011;2119;48.828;12.396;2023-09-19T01:55:26;2.80;;;2.33;;
4210;SDS011;2119;48.828;12.396;2023-09-19T02:00:28;2.20;;;1.90;;
4210;SDS011;2119;48.828;12.396;2023-09-19T02:05:29;2.20;;;1.70;;
4210;SDS011;2119;48.828;12.396;2023-09-19T02:10:30;2.70;;;2.40;;
4210;SDS011;2119;48.828;12.396;2023-09-19T02:15:30;2.85;;;1.90;;
4210;SDS011;2119;48.828;12.396;2023-09-19T02:20:36;2.90;;;2.20;;
4210;SDS011;2119;48.828;12.396;2023-09-19T02:25:37;3.27;;;2.30;;
4210;SDS011;2119;48.828;12.396;2023-09-19T02:30:38;3.83;;;2.37;;
4210;SDS011;2119;48.828;12.396;2023-09-19T02:35:38;7.67;;;2.30;;
4210;SDS011;2119;48.828;12.396;2023-09-19T02:40:38;7.22;;;2.55;;
4210;SDS011;2119;48.828;12.396;2023-09-19T02:45:39;2.57;;;2.37;;
4210;SDS011;2119;48.828;12.396;2023-09-19T02:50:39;2.25;;;2.05;;
4210;SDS011;2119;48.828;12.396;2023-09-19T02:55:40;2.53;;;2.33;;
4210;SDS011;2119;48.828;12.396;2023-09-19T03:00:40;4.32;;;2.20;;
4210;SDS011;2119;48.828;12.396;2023-09-19T03:05:42;3.55;;;2.20;;
4210;SDS011;2119;48.828;12.396;2023-09-19T03:10:47;6.65;;;2.00;;
4210;SDS011;2119;48.828;12.396;2023-09-19T03:15:47;5.95;;;2.13;;
4210;SDS011;2119;48.828;12.396;2023-09-19T03:20:53;4.27;;;2.10;;
4210;SDS011;2119;48.828;12.396;2023-09-19T03:25:55;2.30;;;2.10;;
4210;SDS011;2119;48.828;12.396;2023-09-19T03:31:04;4.23;;;2.20;;
4210;SDS011;2119;48.828;12.396;2023-09-19T03:36:04;2.27;;;1.90;;
4210;SDS011;2119;48.828;12.396;2023-09-19T03:41:05;2.13;;;1.93;;
4210;SDS011;2119;48.828;12.396;2023-09-19T03:46:05;3.23;;;2.10;;
4210;SDS011;2119;48.828;12.396;2023-09-19T03:51:07;3.97;;;1.80;;
4210;SDS011;2119;48.828;12.396;2023-09-19T03:56:07;4.30;;;2.35;;
4210;SDS011;2119;48.828;12.396;2023-09-19T04:01:08;4.03;;;2.10;;
4210;SDS011;2119;48.828;12.396;2023-09-19T04:06:08;6.17;;;2.10;;
4210;SDS011;2119;48.828;12.396;2023-09-19T04:11:08;3.90;;;2.10;;
4210;SDS011;2119;48.828;12.396;2023-09-19T04:16:09;3.50;;;1.90;;
4210;SDS011;2119;48.828;12.396;2023-09-19T04:21:10;2.17;;;1.87;;
4210;SDS011;2119;48.828;12.396;2023-09-19T04:26:10;3.30;;;2.40;;
4210;SDS011;2119;48.828;12.396;2023-09-19T04:31:11;3.40;;;1.87;;
4210;SDS011;2119;48.828;12.396;2023-09-19T04:36:11;1.80;;;1.70;;
4210;SDS011;2119;48.828;12.396;2023-09-19T04:41:13;7.73;;;2.80;;
4210;SDS011;2119;48.828;12.396;2023-09-19T04:46:15;1.50;;;1.40;;
4210;SDS011;2119;48.828;12.396;2023-09-19T04:51:17;1.53;;;1.40;;
4210;SDS011;2119;48.828;12.396;2023-09-19T04:56:19;1.70;;;1.23;;
4210;SDS011;2119;48.828;12.396;2023-09-19T05:01:21;1.47;;;1.20;;
4210;SDS011;2119;48.828;12.396;2023-09-19T05:06:22;1.83;;;1.63;;
4210;SDS011;2119;48.828;12.396;2023-09-19T05:11:22;1.57;;;1.40;;
4210;SDS011;2119;48.828;12.396;2023-09-19T05:16:22;1.40;;;1.30;;
4210;SDS011;2119;48.828;12.396;2023-09-19T05:21:24;3.13;;;1.40;;
4210;SDS011;2119;48.828;12.396;2023-09-19T05:26:24;1.60;;;1.30;;
4210;SDS011;2119;48.828;12.396;2023-09-19T05:31:25;4.10;;;1.40;;
4210;SDS011;2119;48.828;12.396;2023-09-19T05:36:26;1.50;;;1.30;;
4210;SDS011;2119;48.828;12.396;2023-09-19T05:41:29;3.27;;;1.60;;
4210;SDS011;2119;48.828;12.396;2023-09-19T05:46:30;3.87;;;1.70;;
4210;SDS011;2119;48.828;12.396;2023-09-19T05:51:30;1.60;;;1.40;;
4210;SDS011;2119;48.828;12.396;2023-09-19T05:56:30;2.43;;;1.60;;
4210;SDS011;2119;48.828;12.396;2023-09-19T06:01:31;2.10;;;1.90;;
4210;SDS011;2119;48.828;12.396;2023-09-19T06:06:32;4.17;;;2.37;;
4210;SDS011;2119;48.828;12.396;2023-09-19T06:11:36;3.00;;;2.80;;
4210;SDS011;2119;48.828;12.396;2023-09-19T06:16:37;3.93;;;2.67;;
4210;SDS011;2119;48.828;12.396;2023-09-19T06:21:41;2.60;;;1.83;;
4210;SDS011;2119;48.828;12.396;2023-09-19T06:26:42;3.20;;;2.10;;
4210;SDS011;2119;48.828;12.396;2023-09-19T06:31:44;2.15;;;1.95;;
4210;SDS011;2119;48.828;12.396;2023-09-19T06:36:44;8.32;;;2.42;;
4210;SDS011;2119;48.828;12.396;2023-09-19T06:41:45;5.60;;;1.97;;
4210;SDS011;2119;48.828;12.396;2023-09-19T06:46:46;2.10;;;1.90;;
4210;SDS011;2119;48.828;12.396;2023-09-19T06:51:50;4.50;;;1.70;;
4210;SDS011;2119;48.828;12.396;2023-09-19T06:56:50;2.13;;;1.93;;
4210;SDS011;2119;48.828;12.396;2023-09-19T07:01:50;3.20;;;2.10;;
4210;SDS011;2119;48.828;12.396;2023-09-19T07:06:51;2.30;;;1.77;;
4210;SDS011;2119;48.828;12.396;2023-09-19T07:11:51;3.17;;;2.10;;
4210;SDS011;2119;48.828;12.396;2023-09-19T07:16:51;3.10;;;2.17;;
4210;SDS011;2119;48.828;12.396;2023-09-19T07:21:52;2.07;;;1.73;;
4210;SDS011;2119;48.828;12.396;2023-09-19T07:26:52;3.10;;;2.33;;
4210;SDS011;2119;48.828;12.396;2023-09-19T07:31:52;2.65;;;2.45;;
4210;SDS011;2119;48.828;12.396;2023-09-19T07:36:52;2.73;;;1.80;;
4210;SDS011;2119;48.828;12.396;2023-09-19T07:41:53;2.37;;;2.17;;
4210;SDS011;2119;48.828;12.396;2023-09-19T07:46:54;3.03;;;2.10;;
4210;SDS011;2119;48.828;12.396;2023-09-19T07:51:55;2.00;;;1.90;;
4210;SDS011;2119;48.828;12.396;2023-09-19T07:57:03;2.30;;;2.10;;
4210;SDS011;2119;48.828;12.396;2023-09-19T08:02:04;5.87;;;3.53;;
4210;SDS011;2119;48.828;12.396;2023-09-19T08:07:11;3.23;;;3.03;;
4210;SDS011;2119;48.828;12.396;2023-09-19T08:17:16;3.17;;;2.97;;
4210;SDS011;2119;48.828;12.396;2023-09-19T08:22:19;3.10;;;2.90;;
4210;SDS011;2119;48.828;12.396;2023-09-19T08:27:27;2.90;;;2.70;;
4210;SDS011;2119;48.828;12.396;2023-09-19T08:32:28;3.73;;;3.53;;
4210;SDS011;2119;48.828;12.396;2023-09-19T08:37:29;3.93;;;3.63;;
4210;SDS011;2119;48.828;12.396;2023-09-19T08:42:46;4.03;;;3.63;;
4210;SDS011;2119;48.828;12.396;2023-09-19T08:47:53;4.20;;;4.00;;
4210;SDS011;2119;48.828;12.396;2023-09-19T08:53:00;3.93;;;3.63;;
4210;SDS011;2119;48.828;12.396;2023-09-19T08:58:02;3.57;;;3.27;;
4210;SDS011;2119;48.828;12.396;2023-09-19T09:03:03;3.77;;;3.47;;
4210;SDS011;2119;48.828;12.396;2023-09-19T09:08:05;4.00;;;3.43;;
4210;SDS011;2119;48.828;12.396;2023-09-19T09:13:06;5.20;;;3.90;;
4210;SDS011;2119;48.828;12.396;2023-09-19T09:18:07;3.67;;;3.38;;
4210;SDS011;2119;48.828;12.396;2023-09-19T09:23:10;4.00;;;3.80;;
4210;SDS011;2119;48.828;12.396;2023-09-19T09:28:11;3.87;;;3.60;;
4210;SDS011;2119;48.828;12.396;2023-09-19T09:33:13;4.53;;;4.17;;
4210;SDS011;2119;48.828;12.396;2023-09-19T09:38:16;3.23;;;2.90;;
4210;SDS011;2119;48.828;12.396;2023-09-19T09:54:17;3.33;;;3.03;;
4210;SDS011;2119;48.828;12.396;2023-09-19T09:59:22;2.95;;;2.75;;
4210;SDS011;2119;48.828;12.396;2023-09-19T10:04:30;2.10;;;1.90;;
4210;SDS011;2119;48.828;12.396;2023-09-19T10:09:46;1.57;;;1.47;;
4210;SDS011;2119;48.828;12.396;2023-09-19T10:14:52;1.70;;;1.60;;
4210;SDS011;2119;48.828;12.396;2023-09-19T10:24:56;1.40;;;1.10;;
4210;SDS011;2119;48.828;12.396;2023-09-19T10:29:57;1.30;;;1.00;;
4210;SDS011;2119;48.828;12.396;2023-09-19T10:34:59;1.80;;;1.27;;
4210;SDS011;2119;48.828;12.396;2023-09-19T10:40:00;1.50;;;1.10;;
4210;SDS011;2119;48.828;12.396;2023-09-19T10:45:01;1.90;;;1.10;;
4210;SDS011;2119;48.828;12.396;2023-09-19T10:50:03;1.42;;;1.00;;
4210;SDS011;2119;48.828;12.396;2023-09-19T10:55:05;2.17;;;1.20;;
4210;SDS011;2119;48.828;12.396;2023-09-19T11:00:07;1.50;;;1.40;;
4210;SDS011;2119;48.828;12.396;2023-09-19T11:05:26;1.43;;;1.33;;
4210;SDS011;2119;48.828;12.396;2023-09-19T11:10:59;1.40;;;1.30;;
4210;SDS011;2119;48.828;12.396;2023-09-19T11:31:52;1.50;;;1.20;;
4210;SDS011;2119;48.828;12.396;2023-09-19T11:36:55;1.40;;;1.30;;
4210;SDS011;2119;48.828;12.396;2023-09-19T11:41:55;1.35;;;1.10;;
4210;SDS011;2119;48.828;12.396;2023-09-19T11:46:58;1.47;;;1.30;;
4210;SDS011;2119;48.828;12.396;2023-09-19T11:52:00;1.80;;;1.40;;
4210;SDS011;2119;48.828;12.396;2023-09-19T11:57:06;2.03;;;1.30;;
4210;SDS011;2119;48.828;12.396;2023-09-19T12:02:09;1.40;;;1.30;;
4210;SDS011;2119;48.828;12.396;2023-09-19T12:07:12;1.33;;;1.20;;
4210;SDS011;2119;48.828;12.396;2023-09-19T12:12:25;1.50;;;1.40;;
4210;SDS011;2119;48.828;12.396;2023-09-19T12:17:36;1.80;;;1.60;;
4210;SDS011;2119;48.828;12.396;2023-09-19T12:22:40;1.60;;;1.50;;
4210;SDS011;2119;48.828;12.396;2023-09-19T12:27:41;2.00;;;1.90;;
4210;SDS011;2119;48.828;12.396;2023-09-19T12:32:45;1.60;;;1.50;;
4210;SDS011;2119;48.828;12.396;2023-09-19T12:37:56;1.70;;;1.30;;
4210;SDS011;2119;48.828;12.396;2023-09-19T12:42:56;1.57;;;1.40;;
4210;SDS011;2119;48.828;12.396;2023-09-19T12:48:17;1.60;;;1.50;;
4210;SDS011;2119;48.828;12.396;2023-09-19T12:53:26;1.50;;;1.40;;
4210;SDS011;2119;48.828;12.396;2023-09-19T12:58:29;1.37;;;1.27;;
4210;SDS011;2119;48.828;12.396;2023-09-19T13:03:30;1.37;;;1.27;;
4210;SDS011;2119;48.828;12.396;2023-09-19T13:08:37;2.70;;;1.35;;
4210;SDS011;2119;48.828;12.396;2023-09-19T13:13:39;1.80;;;1.17;;
4210;SDS011;2119;48.828;12.396;2023-09-19T13:18:46;1.30;;;1.20;;
4210;SDS011;2119;48.828;12.396;2023-09-19T13:23:49;1.73;;;1.50;;
4210;SDS011;2119;48.828;12.396;2023-09-19T13:28:50;1.40;;;1.20;;
4210;SDS011;2119;48.828;12.396;2023-09-19T13:33:50;1.60;;;1.40;;
4210;SDS011;2119;48.828;12.396;2023-09-19T13:38:53;1.40;;;1.30;;
4210;SDS011;2119;48.828;12.396;2023-09-19T13:43:55;1.90;;;1.48;;
4210;SDS011;2119;48.828;12.396;2023-09-19T13:48:57;1.73;;;1.53;;
4210;SDS011;2119;48.828;12.396;2023-09-19T13:54:00;1.50;;;1.33;;
4210;SDS011;2119;48.828;12.396;2023-09-19T13:59:00;1.50;;;1.40;;
4210;SDS011;2119;48.828;12.396;2023-09-19T14:04:00;1.50;;;1.40;;
4210;SDS011;2119;48.828;12.396;2023-09-19T14:09:02;1.90;;;1.50;;
4210;SDS011;2119;48.828;12.396;2023-09-19T14:14:04;5.00;;;1.70;;
4210;SDS011;2119;48.828;12.396;2023-09-19T14:19:04;1.87;;;1.77;;
4210;SDS011;2119;48.828;12.396;2023-09-19T14:24:08;1.50;;;1.40;;
4210;SDS011;2119;48.828;12.396;2023-09-19T14:29:09;1.80;;;1.70;;
4210;SDS011;2119;48.828;12.396;2023-09-19T14:34:11;2.27;;;1.60;;
4210;SDS011;2119;48.828;12.396;2023-09-19T14:39:12;1.93;;;1.83;;
4210;SDS011;2119;48.828;12.396;2023-09-19T14:44:13;1.70;;;1.60;;
4210;SDS011;2119;48.828;12.396;2023-09-19T14:49:13;4.27;;;1.40;;
4210;SDS011;2119;48.828;12.396;2023-09-19T14:54:16;1.70;;;1.30;;
4210;SDS011;2119;48.828;12.396;2023-09-19T14:59:17;1.53;;;1.43;;
4210;SDS011;2119;48.828;12.396;2023-09-19T15:04:17;3.57;;;1.30;;
4210;SDS011;2119;48.828;12.396;2023-09-19T15:09:17;1.67;;;1.57;;
4210;SDS011;2119;48.828;12.396;2023-09-19T15:14:19;1.50;;;1.30;;
4210;SDS011;2119;48.828;12.396;2023-09-19T15:19:19;1.50;;;1.40;;
4210;SDS011;2119;48.828;12.396;2023-09-19T15:24:20;1.50;;;1.33;;
4210;SDS011;2119;48.828;12.396;2023-09-19T15:29:20;3.30;;;1.60;;
4210;SDS011;2119;48.828;12.396;2023-09-19T15:34:20;2.10;;;1.40;;
4210;SDS011;2119;48.828;12.396;2023-09-19T15:39:20;1.50;;;1.35;;
4210;SDS011;2119;48.828;12.396;2023-09-19T15:44:22;2.37;;;1.20;;
4210;SDS011;2119;48.828;12.396;2023-09-19T15:49:24;1.67;;;1.50;;
4210;SDS011;2119;48.828;12.396;2023-09-19T15:54:24;2.10;;;1.90;;
4210;SDS011;2119;48.828;12.396;2023-09-19T15:59:25;1.60;;;1.30;;
4210;SDS011;2119;48.828;12.396;2023-09-19T16:04:25;2.80;;;1.70;;
4210;SDS011;2119;48.828;12.396;2023-09-19T16:09:26;2.63;;;1.65;;
4210;SDS011;2119;48.828;12.396;2023-09-19T16:14:27;2.90;;;1.57;;
4210;SDS011;2119;48.828;12.396;2023-09-19T16:19:29;1.50;;;1.40;;
4210;SDS011;2119;48.828;12.396;2023-09-19T16:24:31;1.70;;;1.60;;
4210;SDS011;2119;48.828;12.396;2023-09-19T16:29:37;1.50;;;1.40;;
4210;SDS011;2119;48.828;12.396;2023-09-19T16:34:44;1.70;;;1.60;;
4210;SDS011;2119;48.828;12.396;2023-09-19T16:39:45;3.30;;;1.50;;
4210;SDS011;2119;48.828;12.396;2023-09-19T16:44:47;1.80;;;1.70;;
4210;SDS011;2119;48.828;12.396;2023-09-19T16:49:47;2.37;;;1.90;;
4210;SDS011;2119;48.828;12.396;2023-09-19T16:54:47;2.13;;;2.00;;
4210;SDS011;2119;48.828;12.396;2023-09-19T16:59:48;2.38;;;2.17;;
4210;SDS011;2119;48.828;12.396;2023-09-19T17:04:50;1.93;;;1.77;;
4210;SDS011;2119;48.828;12.396;2023-09-19T17:09:51;1.70;;;1.60;;
4210;SDS011;2119;48.828;12.396;2023-09-19T17:14:51;1.80;;;1.70;;
4210;SDS011;2119;48.828;12.396;2023-09-19T17:19:52;2.13;;;2.03;;
4210;SDS011;2119;48.828;12.396;2023-09-19T17:24:53;2.00;;;1.70;;
4210;SDS011;2119;48.828;12.396;2023-09-19T17:29:53;2.88;;;2.25;;
4210;SDS011;2119;48.828;12.396;2023-09-19T17:34:54;2.17;;;1.97;;
4210;SDS011;2119;48.828;12.396;2023-09-19T17:39:54;2.75;;;1.98;;
4210;SDS011;2119;48.828;12.396;2023-09-19T17:44:56;2.43;;;2.23;;
4210;SDS011;2119;48.828;12.396;2023-09-19T17:49:56;2.40;;;2.00;;
4210;SDS011;2119;48.828;12.396;2023-09-19T17:54:56;1.90;;;1.70;;
4210;SDS011;2119;48.828;12.396;2023-09-19T17:59:58;1.70;;;1.60;;
4210;SDS011;2119;48.828;12.396;2023-09-19T18:04:59;2.90;;;2.00;;
4210;SDS011;2119;48.828;12.396;2023-09-19T18:10:00;2.23;;;2.03;;
4210;SDS011;2119;48.828;12.396;2023-09-19T18:15:00;2.90;;;2.30;;
4210;SDS011;2119;48.828;12.396;2023-09-19T18:20:00;2.37;;;2.17;;
4210;SDS011;2119;48.828;12.396;2023-09-19T18:25:00;2.10;;;2.00;;
4210;SDS011;2119;48.828;12.396;2023-09-19T18:30:01;1.95;;;1.75;;
4210;SDS011;2119;48.828;12.396;2023-09-19T18:35:01;5.32;;;1.88;;
4210;SDS011;2119;48.828;12.396;2023-09-19T18:40:03;3.33;;;1.90;;
4210;SDS011;2119;48.828;12.396;2023-09-19T18:45:04;4.17;;;1.70;;
4210;SDS011;2119;48.828;12.396;2023-09-19T18:50:04;2.60;;;2.40;;
4210;SDS011;2119;48.828;12.396;2023-09-19T18:55:09;4.03;;;2.53;;
4210;SDS011;2119;48.828;12.396;2023-09-19T19:00:10;5.80;;;2.23;;
4210;SDS011;2119;48.828;12.396;2023-09-19T19:05:16;6.17;;;2.30;;
4210;SDS011;2119;48.828;12.396;2023-09-19T19:10:16;2.95;;;2.75;;
4210;SDS011;2119;48.828;12.396;2023-09-19T19:15:17;2.78;;;2.30;;
4210;SDS011;2119;48.828;12.396;2023-09-19T19:20:27;2.43;;;2.20;;
4210;SDS011;2119;48.828;12.396;2023-09-19T19:25:29;2.57;;;2.37;;
4210;SDS011;2119;48.828;12.396;2023-09-19T19:30:30;2.73;;;2.53;;
4210;SDS011;2119;48.828;12.396;2023-09-19T19:35:30;2.13;;;1.93;;
4210;SDS011;2119;48.828;12.396;2023-09-19T19:40:33;2.60;;;1.93;;
4210;SDS011;2119;48.828;12.396;2023-09-19T19:45:33;1.73;;;1.63;;
4210;SDS011;2119;48.828;12.396;2023-09-19T19:50:37;2.33;;;2.13;;
4210;SDS011;2119;48.828;12.396;2023-09-19T19:55:37;2.10;;;1.92;;
4210;SDS011;2119;48.828;12.396;2023-09-19T20:00:39;8.13;;;2.63;;
4210;SDS011;2119;48.828;12.396;2023-09-19T20:05:42;2.20;;;2.00;;
4210;SDS011;2119;48.828;12.396;2023-09-19T20:10:43;2.60;;;2.40;;
4210;SDS011;2119;48.828;12.396;2023-09-19T20:15:53;2.70;;;2.50;;
4210;SDS011;2119;48.828;12.396;2023-09-19T20:20:53;4.87;;;3.47;;
4210;SDS011;2119;48.828;12.396;2023-09-19T20:25:54;3.43;;;3.13;;
4210;SDS011;2119;48.828;12.396;2023-09-19T20:30:54;2.70;;;2.50;;
4210;SDS011;2119;48.828;12.396;2023-09-19T20:35:56;4.37;;;2.40;;
4210;SDS011;2119;48.828;12.396;2023-09-19T20:40:58;4.17;;;2.80;;
4210;SDS011;2119;48.828;12.396;2023-09-19T20:46:02;2.50;;;2.30;;
4210;SDS011;2119;48.828;12.396;2023-09-19T20:51:04;2.90;;;2.30;;
4210;SDS011;2119;48.828;12.396;2023-09-19T20:56:06;3.60;;;2.55;;
4210;SDS011;2119;48.828;12.396;2023-09-19T21:01:06;2.67;;;2.47;;
4210;SDS011;2119;48.828;12.396;2023-09-19T21:06:09;3.27;;;2.63;;
4210;SDS011;2119;48.828;12.396;2023-09-19T21:11:14;2.73;;;2.53;;
4210;SDS011;2119;48.828;12.396;2023-09-19T21:16:15;2.60;;;2.40;;
4210;SDS011;2119;48.828;12.396;2023-09-19T21:21:15;2.23;;;2.13;;
4210;SDS011;2119;48.828;12.396;2023-09-19T21:26:16;2.53;;;2.33;;
4210;SDS011;2119;48.828;12.396;2023-09-19T21:31:17;2.50;;;2.30;;
4210;SDS011;2119;48.828;12.396;2023-09-19T21:36:17;5.05;;;2.92;;
4210;SDS011;2119;48.828;12.396;2023-09-19T21:41:22;2.67;;;2.47;;
4210;SDS011;2119;48.828;12.396;2023-09-19T21:46:23;2.50;;;2.30;;
4210;SDS011;2119;48.828;12.396;2023-09-19T21:51:23;3.30;;;2.50;;
4210;SDS011;2119;48.828;12.396;2023-09-19T21:56:24;2.63;;;2.40;;
4210;SDS011;2119;48.828;12.396;2023-09-19T22:01:24;3.30;;;3.10;;
4210;SDS011;2119;48.828;12.396;2023-09-19T22:06:25;2.73;;;2.53;;
4210;SDS011;2119;48.828;12.396;2023-09-19T22:11:26;2.50;;;2.30;;
4210;SDS011;2119;48.828;12.396;2023-09-19T22:16:26;2.63;;;2.42;;
4210;SDS011;2119;48.828;12.396;2023-09-19T22:21:27;3.33;;;2.50;;
4210;SDS011;2119;48.828;12.396;2023-09-19T22:26:54;2.77;;;2.57;;
4210;SDS011;2119;48.828;12.396;2023-09-19T22:31:55;4.60;;;2.57;;
4210;SDS011;2119;48.828;12.396;2023-09-19T22:36:55;2.80;;;2.60;;
4210;SDS011;2119;48.828;12.396;2023-09-19T22:41:55;6.40;;;2.47;;
4210;SDS011;2119;48.828;12.396;2023-09-19T22:47:05;2.40;;;2.20;;
4210;SDS011;2119;48.828;12.396;2023-09-19T22:52:07;6.60;;;3.10;;
4210;SDS011;2119;48.828;12.396;2023-09-19T22:57:09;2.70;;;2.50;;
4210;SDS011;2119;48.828;12.396;2023-09-19T23:02:11;3.10;;;2.90;;
4210;SDS011;2119;48.828;12.396;2023-09-19T23:07:13;2.67;;;2.47;;
4210;SDS011;2119;48.828;12.396;2023-09-19T23:12:14;2.47;;;2.27;;
4210;SDS011;2119;48.828;12.396;2023-09-19T23:17:19;2.80;;;2.10;;
4210;SDS011;2119;48.828;12.396;2023-09-19T23:22:22;2.83;;;2.63;;
4210;SDS011;2119;48.828;12.396;2023-09-19T23:27:28;2.30;;;1.87;;
4210;SDS011;2119;48.828;12.396;2023-09-19T23:32:33;1.93;;;1.83;;
4210;SDS011;2119;48.828;12.396;2023-09-19T23:37:35;2.80;;;2.60;;
4210;SDS011;2119;48.828;12.396;2023-09-19T23:42:35;2.50;;;2.30;;
4210;SDS011;2119;48.828;12.396;2023-09-19T23:47:35;2.83;;;2.50;;
4210;SDS011;2119;48.828;12.396;2023-09-19T23:52:36;2.35;;;2.15;;
4210;SDS011;2119;48.828;12.396;2023-09-19T23:57:36;3.70;;;2.30;;
